createdAt,value
2023-04-01T00:01:05.877Z,96349.09
2023-04-01T00:03:37.947Z,96358.66
2023-04-01T00:06:16.288Z,96360.81
2023-04-01T00:08:48.127Z,96354.28
2023-04-01T00:11:20.602Z,96358.13
2023-04-01T00:13:52.425Z,96361.34
2023-04-01T00:16:24.315Z,96352.00
2023-04-01T00:18:56.053Z,96337.34
2023-04-01T00:21:27.739Z,96353.44
2023-04-01T00:23:59.518Z,96359.81
2023-04-01T00:26:31.271Z,96357.34
2023-04-01T00:29:03.153Z,96359.16
2023-04-01T00:31:35.668Z,96380.16
2023-04-01T00:34:07.419Z,96390.47
2023-04-01T00:36:39.271Z,96390.97
2023-04-01T00:39:11.334Z,96381.63
2023-04-01T00:41:43.267Z,96367.13
2023-04-01T00:44:25.078Z,96362.91
2023-04-01T00:46:57.588Z,96366.16
2023-04-01T00:49:39.406Z,96364.00
2023-04-01T00:52:16.343Z,96369.75
2023-04-01T00:54:54.520Z,96382.44
2023-04-01T00:57:35.549Z,96367.97
2023-04-01T01:00:12.194Z,96371.91
2023-04-01T01:02:47.466Z,96349.59
2023-04-01T01:05:48.167Z,96362.84
2023-04-01T01:08:37.207Z,96379.53
2023-04-01T01:11:11.757Z,96370.47
2023-04-01T01:14:02.282Z,96360.47
2023-04-01T01:16:45.231Z,96362.47
2023-04-01T01:19:19.829Z,96373.69
2023-04-01T01:22:17.663Z,96359.88
2023-04-01T01:25:01.561Z,96369.69
2023-04-01T01:27:39.336Z,96385.22
2023-04-01T01:30:30.823Z,96379.59
2023-04-01T01:33:33.992Z,96384.31
2023-04-01T01:36:13.988Z,96381.78
2023-04-01T01:38:49.851Z,96386.03
2023-04-01T01:41:27.376Z,96385.16
2023-04-01T01:44:04.183Z,96372.44
2023-04-01T01:46:40.465Z,96377.25
2023-04-01T01:49:18.800Z,96363.94
2023-04-01T01:51:51.813Z,96373.06
2023-04-01T01:54:24.098Z,96360.34
2023-04-01T01:57:18.395Z,96361.75
2023-04-01T02:00:02.370Z,96342.09
2023-04-01T02:02:48.959Z,96336.25
2023-04-01T02:05:26.430Z,96346.03
2023-04-01T02:08:08.496Z,96330.44
2023-04-01T02:10:50.124Z,96336.91
2023-04-01T02:13:32.938Z,96341.13
2023-04-01T02:16:29.501Z,96333.03
2023-04-01T02:19:06.913Z,96341.44
2023-04-01T02:21:43.986Z,96331.94
2023-04-01T02:24:16.668Z,96331.13
2023-04-01T02:26:52.736Z,96318.78
2023-04-01T02:29:26.253Z,96307.94
2023-04-01T02:32:01.141Z,96314.47
2023-04-01T02:34:34.289Z,96300.81
2023-04-01T02:37:07.555Z,96303.25
2023-04-01T02:39:40.496Z,96308.19
2023-04-01T02:42:15.278Z,96311.66
2023-04-01T02:44:47.411Z,96299.91
2023-04-01T02:47:19.356Z,96292.44
2023-04-01T02:49:53.916Z,96294.97
2023-04-01T02:52:26.318Z,96308.16
2023-04-01T02:54:58.992Z,96327.13
2023-04-01T02:57:31.052Z,96327.56
2023-04-01T03:00:04.276Z,96316.06
2023-04-01T03:02:36.058Z,96314.69
2023-04-01T03:05:08.510Z,96318.44
2023-04-01T03:07:40.275Z,96311.59
2023-04-01T03:10:12.228Z,96310.22
2023-04-01T03:12:44.377Z,96309.31
2023-04-01T03:15:16.162Z,96314.25
2023-04-01T03:17:48.059Z,96322.03
2023-04-01T03:20:19.833Z,96317.50
2023-04-01T03:22:51.960Z,96325.03
2023-04-01T03:25:23.755Z,96322.31
2023-04-01T03:27:56.392Z,96325.34
2023-04-01T03:30:28.328Z,96323.56
2023-04-01T03:33:00.627Z,96323.97
2023-04-01T03:35:33.869Z,96327.34
2023-04-01T03:38:07.081Z,96335.75
2023-04-01T03:40:43.817Z,96341.31
2023-04-01T03:43:16.689Z,96340.72
2023-04-01T03:45:51.656Z,96333.50
2023-04-01T03:48:23.798Z,96329.41
2023-04-01T03:50:55.625Z,96327.34
2023-04-01T03:53:28.652Z,96322.50
2023-04-01T03:56:09.314Z,96317.00
2023-04-01T03:58:41.912Z,96314.00
2023-04-01T04:01:20.738Z,96311.28
2023-04-01T04:03:54.002Z,96303.16
2023-04-01T04:06:28.567Z,96300.00
2023-04-01T04:09:00.619Z,96299.03
2023-04-01T04:11:35.300Z,96293.69
2023-04-01T04:14:09.149Z,96300.59
2023-04-01T04:16:41.468Z,96306.06
2023-04-01T04:19:13.632Z,96301.59
2023-04-01T04:21:45.816Z,96300.34
2023-04-01T04:24:18.742Z,96296.09
2023-04-01T04:27:10.858Z,96301.91
2023-04-01T04:29:51.258Z,96305.38
2023-04-01T04:32:23.692Z,96308.38
2023-04-01T04:34:55.934Z,96319.38
2023-04-01T04:37:27.708Z,96316.06
2023-04-01T04:40:00.037Z,96308.06
2023-04-01T04:42:32.493Z,96304.31
2023-04-01T04:45:11.093Z,96302.66
2023-04-01T04:47:47.134Z,96303.22
2023-04-01T04:50:19.134Z,96313.75
2023-04-01T04:52:52.275Z,96316.03
2023-04-01T04:55:25.765Z,96309.44
2023-04-01T04:58:19.093Z,96300.94
2023-04-01T05:00:51.514Z,96315.41
2023-04-01T05:03:32.078Z,96307.78
2023-04-01T05:06:05.181Z,96326.09
2023-04-01T05:08:37.524Z,96323.81
2023-04-01T05:11:15.641Z,96317.72
2023-04-01T05:13:50.200Z,96322.75
2023-04-01T05:16:23.589Z,96315.59
2023-04-01T05:18:55.589Z,96317.84
2023-04-01T05:21:27.780Z,96327.22
2023-04-01T05:24:01.448Z,96328.16
2023-04-01T05:26:34.117Z,96341.28
2023-04-01T05:29:06.424Z,96333.31
2023-04-01T05:31:39.326Z,96329.59
2023-04-01T05:34:11.737Z,96321.63
2023-04-01T05:36:45.054Z,96313.50
2023-04-01T05:39:16.742Z,96307.97
2023-04-01T05:41:49.326Z,96319.59
2023-04-01T05:44:21.071Z,96315.34
2023-04-01T05:47:07.875Z,96321.53
2023-04-01T05:49:39.628Z,96305.75
2023-04-01T05:52:11.759Z,96310.22
2023-04-01T05:54:47.783Z,96314.69
2023-04-01T05:57:19.919Z,96307.69
2023-04-01T05:59:51.719Z,96316.50
2023-04-01T06:02:24.640Z,96308.31
2023-04-01T06:05:25.198Z,96321.50
2023-04-01T06:08:06.029Z,96319.56
2023-04-01T06:10:59.542Z,96324.50
2023-04-01T06:13:41.185Z,96304.84
2023-04-01T06:16:50.656Z,96306.66
2023-04-01T06:19:28.513Z,96308.31
2023-04-01T06:22:22.021Z,96310.41
2023-04-01T06:25:24.090Z,96325.59
2023-04-01T06:28:21.283Z,96332.53
2023-04-01T06:31:26.935Z,96334.84
2023-04-01T06:34:17.571Z,96340.34
2023-04-01T06:37:08.391Z,96344.22
2023-04-01T06:39:40.474Z,96352.41
2023-04-01T06:42:30.896Z,96364.50
2023-04-01T06:45:29.537Z,96361.03
2023-04-01T06:48:28.584Z,96347.50
2023-04-01T06:51:32.692Z,96351.88
2023-04-01T06:54:33.379Z,96357.84
2023-04-01T06:57:31.793Z,96367.03
2023-04-01T07:00:28.215Z,96362.97
2023-04-01T07:03:30.419Z,96355.56
2023-04-01T07:06:12.499Z,96352.75
2023-04-01T07:08:56.626Z,96361.19
2023-04-01T07:11:33.718Z,96354.00
2023-04-01T07:14:46.441Z,96354.19
2023-04-01T07:17:32.868Z,96361.19
2023-04-01T07:20:30.390Z,96379.94
2023-04-01T07:23:12.813Z,96375.19
2023-04-01T07:26:26.093Z,96379.53
2023-04-01T07:29:15.411Z,96379.50
2023-04-01T07:32:10.688Z,96379.84
2023-04-01T07:35:04.619Z,96383.63
2023-04-01T07:37:48.264Z,96383.91
2023-04-01T07:40:40.036Z,96387.06
2023-04-01T07:43:33.678Z,96385.66
2023-04-01T07:47:00.006Z,96382.19
2023-04-01T07:50:06.472Z,96388.03
2023-04-01T07:53:06.377Z,96373.56
2023-04-01T07:55:51.817Z,96382.28
2023-04-01T07:58:32.634Z,96384.13
2023-04-01T08:01:23.270Z,96390.63
2023-04-01T08:04:10.888Z,96389.53
2023-04-01T08:06:45.759Z,96393.00
2023-04-01T08:09:30.775Z,96390.69
2023-04-01T08:13:12.960Z,96389.38
2023-04-01T08:16:23.984Z,96403.34
2023-04-01T08:19:22.168Z,96396.25
2023-04-01T08:22:06.415Z,96401.00
2023-04-01T08:24:48.464Z,96401.75
2023-04-01T08:27:49.471Z,96396.63
2023-04-01T08:30:26.917Z,96412.00
2023-04-01T08:33:22.570Z,96406.59
2023-04-01T08:36:11.330Z,96401.56
2023-04-01T08:39:07.534Z,96390.78
2023-04-01T08:41:58.372Z,96386.00
2023-04-01T08:45:03.506Z,96382.03
2023-04-01T08:48:07.324Z,96390.91
2023-04-01T08:50:59.779Z,96386.56
2023-04-01T08:53:56.269Z,96379.25
2023-04-01T08:56:42.371Z,96386.28
2023-04-01T08:59:23.506Z,96394.97
2023-04-01T09:02:27.338Z,96389.84
2023-04-01T09:05:41.488Z,96389.16
2023-04-01T09:08:38.036Z,96399.13
2023-04-01T09:11:28.638Z,96403.06
2023-04-01T09:14:48.182Z,96404.91
2023-04-01T09:18:05.976Z,96399.94
2023-04-01T09:21:13.104Z,96400.47
2023-04-01T09:24:09.132Z,96399.22
2023-04-01T09:26:55.367Z,96405.75
2023-04-01T09:30:05.662Z,96409.19
2023-04-01T09:32:41.274Z,96404.75
2023-04-01T09:35:46.603Z,96399.28
2023-04-01T09:38:18.631Z,96406.19
2023-04-01T09:41:22.483Z,96405.78
2023-04-01T09:44:42.961Z,96412.50
2023-04-01T09:47:23.764Z,96407.56
2023-04-01T09:50:27.748Z,96411.59
2023-04-01T09:53:25.639Z,96400.97
2023-04-01T09:56:40.176Z,96405.34
2023-04-01T09:59:32.106Z,96399.88
2023-04-01T10:02:44.552Z,96400.34
2023-04-01T10:05:45.446Z,96401.88
2023-04-01T10:08:25.962Z,96392.94
2023-04-01T10:11:16.390Z,96392.31
2023-04-01T10:14:11.734Z,96389.00
2023-04-01T10:17:16.372Z,96384.00
2023-04-01T10:20:03.184Z,96391.03
2023-04-01T10:22:57.492Z,96387.06
2023-04-01T10:25:57.847Z,96378.22
2023-04-01T10:29:09.208Z,96368.19
2023-04-01T10:31:56.043Z,96369.22
2023-04-01T10:34:38.072Z,96365.88
2023-04-01T10:37:19.376Z,96363.69
2023-04-01T10:40:14.017Z,96365.88
2023-04-01T10:43:36.877Z,96369.44
2023-04-01T10:46:51.333Z,96361.88
2023-04-01T10:50:07.641Z,96363.28
2023-04-01T10:53:13.305Z,96357.66
2023-04-01T10:56:14.429Z,96369.81
2023-04-01T10:59:27.368Z,96380.25
2023-04-01T11:02:40.053Z,96381.06
2023-04-01T11:06:14.265Z,96393.78
2023-04-01T11:08:52.026Z,96385.22
2023-04-01T11:11:40.560Z,96381.78
2023-04-01T11:14:31.241Z,96370.38
2023-04-01T11:17:24.266Z,96381.34
2023-04-01T11:20:20.263Z,96366.59
2023-04-01T11:23:37.798Z,96357.47
2023-04-01T11:26:28.931Z,96350.97
2023-04-01T11:29:58.708Z,96347.63
2023-04-01T11:32:52.452Z,96338.13
2023-04-01T11:35:41.608Z,96333.50
2023-04-01T11:38:20.339Z,96332.41
2023-04-01T11:41:00.920Z,96326.22
2023-04-01T11:44:15.973Z,96309.72
2023-04-01T11:47:28.347Z,96319.34
2023-04-01T11:50:18.954Z,96318.47
2023-04-01T11:53:24.266Z,96323.19
2023-04-01T11:56:15.615Z,96314.84
2023-04-01T11:59:09.699Z,96306.78
2023-04-01T12:02:21.280Z,96309.31
2023-04-01T12:05:08.531Z,96293.63
2023-04-01T12:07:54.578Z,96293.75
2023-04-01T12:10:32.630Z,96299.25
2023-04-01T12:13:20.508Z,96281.06
2023-04-01T12:16:05.702Z,96283.59
2023-04-01T12:18:48.003Z,96275.78
2023-04-01T12:22:02.367Z,96283.47
2023-04-01T12:24:53.766Z,96291.19
2023-04-01T12:27:51.958Z,96284.56
2023-04-01T12:30:42.288Z,96276.75
2023-04-01T12:33:20.176Z,96277.91
2023-04-01T12:36:17.785Z,96261.97
2023-04-01T12:38:56.872Z,96259.44
2023-04-01T12:42:08.405Z,96263.03
2023-04-01T12:44:53.393Z,96260.03
2023-04-01T12:47:37.481Z,96250.25
2023-04-01T12:50:36.814Z,96249.06
2023-04-01T12:53:45.453Z,96252.31
2023-04-01T12:56:35.571Z,96241.56
2023-04-01T12:59:47.164Z,96243.03
2023-04-01T13:02:45.383Z,96236.09
2023-04-01T13:05:26.287Z,96242.41
2023-04-01T13:08:37.465Z,96241.84
2023-04-01T13:11:15.318Z,96245.66
2023-04-01T13:13:59.356Z,96239.97
2023-04-01T13:16:36.683Z,96247.91
2023-04-01T13:19:18.782Z,96240.50
2023-04-01T13:22:11.341Z,96235.78
2023-04-01T13:25:12.534Z,96231.19
2023-04-01T13:27:57.900Z,96228.38
2023-04-01T13:30:44.639Z,96225.03
2023-04-01T13:33:20.299Z,96213.56
2023-04-01T13:35:59.651Z,96223.81
2023-04-01T13:38:58.185Z,96219.97
2023-04-01T13:41:47.607Z,96206.84
2023-04-01T13:44:42.609Z,96199.34
2023-04-01T13:47:17.885Z,96209.03
2023-04-01T13:50:17.915Z,96201.75
2023-04-01T13:53:08.966Z,96199.94
2023-04-01T13:56:23.485Z,96194.03
2023-04-01T13:59:19.978Z,96191.47
2023-04-01T14:02:17.270Z,96197.03
2023-04-01T14:05:41.852Z,96200.81
2023-04-01T14:08:33.449Z,96209.63
2023-04-01T14:11:30.257Z,96203.63
2023-04-01T14:14:32.831Z,96206.03
2023-04-01T14:17:22.895Z,96211.84
2023-04-01T14:20:02.185Z,96204.63
2023-04-01T14:22:50.364Z,96204.72
2023-04-01T14:25:28.620Z,96192.31
2023-04-01T14:28:14.546Z,96195.94
2023-04-01T14:31:26.899Z,96198.94
2023-04-01T14:34:15.789Z,96206.47
2023-04-01T14:37:14.137Z,96208.81
2023-04-01T14:39:59.131Z,96206.16
2023-04-01T14:42:56.755Z,96210.47
2023-04-01T14:45:43.823Z,96204.28
2023-04-01T14:48:40.067Z,96200.19
2023-04-01T14:51:21.318Z,96203.63
2023-04-01T14:54:21.506Z,96199.41
2023-04-01T14:57:16.410Z,96195.78
2023-04-01T15:00:14.378Z,96193.09
2023-04-01T15:02:58.436Z,96190.28
2023-04-01T15:05:33.481Z,96186.50
2023-04-01T15:08:17.109Z,96185.09
2023-04-01T15:11:28.746Z,96181.94
2023-04-01T15:14:18.619Z,96179.09
2023-04-01T15:17:07.862Z,96183.06
2023-04-01T15:20:16.667Z,96178.91
2023-04-01T15:23:19.917Z,96177.88
2023-04-01T15:26:01.141Z,96181.44
2023-04-01T15:29:01.555Z,96184.78
2023-04-01T15:31:53.218Z,96181.44
2023-04-01T15:34:37.276Z,96187.75
2023-04-01T15:37:24.164Z,96182.34
2023-04-01T15:40:48.262Z,96186.00
2023-04-01T15:43:50.155Z,96189.25
2023-04-01T15:46:28.251Z,96189.13
2023-04-01T15:49:38.597Z,96189.31
2023-04-01T15:52:28.056Z,96180.34
2023-04-01T15:55:37.944Z,96176.44
2023-04-01T15:58:27.024Z,96168.09
2023-04-01T16:01:26.130Z,96173.97
2023-04-01T16:04:25.922Z,96170.72
2023-04-01T16:07:12.788Z,96170.75
2023-04-01T16:10:03.208Z,96181.09
2023-04-01T16:12:48.422Z,96182.13
2023-04-01T16:15:28.518Z,96181.13
2023-04-01T16:18:28.091Z,96194.63
2023-04-01T16:21:21.803Z,96188.91
2023-04-01T16:24:05.692Z,96191.56
2023-04-01T16:26:57.301Z,96184.25
2023-04-01T16:29:44.696Z,96187.50
2023-04-01T16:32:30.786Z,96183.09
2023-04-01T16:35:36.226Z,96178.00
2023-04-01T16:38:30.690Z,96198.75
2023-04-01T16:41:21.271Z,96196.84
2023-04-01T16:44:00.577Z,96193.34
2023-04-01T16:46:47.355Z,96198.38
2023-04-01T16:49:41.347Z,96196.28
2023-04-01T16:52:13.015Z,96196.06
2023-04-01T16:55:04.799Z,96203.78
2023-04-01T16:57:46.103Z,96209.91
2023-04-01T17:00:25.083Z,96200.06
2023-04-01T17:03:05.636Z,96200.16
2023-04-01T17:06:11.886Z,96206.81
2023-04-01T17:09:02.360Z,96213.63
2023-04-01T17:11:46.976Z,96218.38
2023-04-01T17:14:31.862Z,96229.72
2023-04-01T17:17:47.436Z,96228.53
2023-04-01T17:20:37.919Z,96228.47
2023-04-01T17:23:09.677Z,96234.19
2023-04-01T17:26:08.263Z,96238.00
2023-04-01T17:29:25.122Z,96241.66
2023-04-01T17:32:12.642Z,96251.81
2023-04-01T17:34:59.520Z,96248.53
2023-04-01T17:37:42.841Z,96255.38
2023-04-01T17:40:20.722Z,96248.53
2023-04-01T17:43:13.320Z,96258.72
2023-04-01T17:45:44.936Z,96257.66
2023-04-01T17:48:37.486Z,96262.38
2023-04-01T17:51:32.012Z,96260.31
2023-04-01T17:54:21.985Z,96267.88
2023-04-01T17:57:27.718Z,96274.56
2023-04-01T18:00:25.424Z,96276.56
2023-04-01T18:03:38.159Z,96279.63
2023-04-01T18:06:30.344Z,96279.56
2023-04-01T18:09:10.963Z,96282.19
2023-04-01T18:11:45.734Z,96285.41
2023-04-01T18:14:47.171Z,96277.34
2023-04-01T18:17:28.227Z,96280.25
2023-04-01T18:20:48.488Z,96287.50
2023-04-01T18:23:26.993Z,96283.16
2023-04-01T18:26:14.859Z,96283.63
2023-04-01T18:29:10.704Z,96293.34
2023-04-01T18:31:52.500Z,96290.00
2023-04-01T18:34:51.577Z,96290.53
2023-04-01T18:37:29.099Z,96297.72
2023-04-01T18:40:40.623Z,96306.56
2023-04-01T18:43:31.786Z,96311.69
2023-04-01T18:46:30.371Z,96319.50
2023-04-01T18:49:23.722Z,96325.72
2023-04-01T18:52:22.838Z,96332.59
2023-04-01T18:55:03.853Z,96340.69
2023-04-01T18:58:06.817Z,96339.25
2023-04-01T19:01:14.225Z,96344.69
2023-04-01T19:04:13.523Z,96342.66
2023-04-01T19:06:52.678Z,96348.91
2023-04-01T19:09:24.505Z,96359.63
2023-04-01T19:12:09.200Z,96364.22
2023-04-01T19:15:05.642Z,96362.50
2023-04-01T19:18:02.005Z,96364.66
2023-04-01T19:20:44.487Z,96368.34
2023-04-01T19:23:45.537Z,96367.91
2023-04-01T19:26:34.867Z,96371.38
2023-04-01T19:29:41.107Z,96375.75
2023-04-01T19:32:34.880Z,96378.69
2023-04-01T19:35:15.516Z,96375.53
2023-04-01T19:38:05.044Z,96372.13
2023-04-01T19:40:55.074Z,96366.25
2023-04-01T19:43:40.724Z,96362.06
2023-04-01T19:46:34.102Z,96363.03
2023-04-01T19:49:47.545Z,96358.91
2023-04-01T19:52:37.138Z,96367.25
2023-04-01T19:55:36.623Z,96377.13
2023-04-01T19:58:32.221Z,96381.19
2023-04-01T20:01:07.360Z,96385.38
2023-04-01T20:03:51.139Z,96379.31
2023-04-01T20:06:43.848Z,96380.03
2023-04-01T20:09:21.555Z,96375.97
2023-04-01T20:12:24.472Z,96374.63
2023-04-01T20:14:59.583Z,96377.91
2023-04-01T20:18:00.653Z,96379.97
2023-04-01T20:20:35.132Z,96392.91
2023-04-01T20:23:25.661Z,96392.94
2023-04-01T20:26:05.349Z,96397.22
2023-04-01T20:29:01.302Z,96409.66
2023-04-01T20:31:56.487Z,96409.59
2023-04-01T20:35:04.870Z,96413.69
2023-04-01T20:37:46.065Z,96415.47
2023-04-01T20:40:36.850Z,96404.13
2023-04-01T20:43:24.196Z,96407.41
2023-04-01T20:46:01.874Z,96401.88
2023-04-01T20:49:00.193Z,96405.00
2023-04-01T20:51:35.502Z,96417.72
2023-04-01T20:54:44.860Z,96419.44
2023-04-01T20:57:41.526Z,96425.63
2023-04-01T21:00:51.728Z,96421.03
2023-04-01T21:03:27.701Z,96433.50
2023-04-01T21:06:19.660Z,96432.53
2023-04-01T21:09:17.640Z,96433.31
2023-04-01T21:12:03.841Z,96428.56
2023-04-01T21:14:42.041Z,96430.72
2023-04-01T21:17:29.127Z,96435.91
2023-04-01T21:20:08.827Z,96430.94
2023-04-01T21:23:16.169Z,96427.41
2023-04-01T21:25:58.633Z,96420.00
2023-04-01T21:28:36.887Z,96418.44
2023-04-01T21:31:24.397Z,96415.28
2023-04-01T21:34:24.422Z,96405.63
2023-04-01T21:37:23.890Z,96409.06
2023-04-01T21:40:03.752Z,96411.53
2023-04-01T21:42:44.957Z,96413.56
2023-04-01T21:45:17.181Z,96414.84
2023-04-01T21:47:55.311Z,96410.97
2023-04-01T21:50:36.376Z,96410.66
2023-04-01T21:53:26.924Z,96411.63
2023-04-01T21:56:14.042Z,96409.50
2023-04-01T21:59:19.556Z,96412.22
2023-04-01T22:02:08.003Z,96412.06
2023-04-01T22:04:58.955Z,96412.28
2023-04-01T22:07:42.361Z,96419.78
2023-04-01T22:10:23.612Z,96416.16
2023-04-01T22:13:08.082Z,96420.91
2023-04-01T22:15:43.759Z,96417.47
2023-04-01T22:18:35.378Z,96428.78
2023-04-01T22:21:25.484Z,96414.47
2023-04-01T22:24:25.169Z,96417.34
2023-04-01T22:27:02.769Z,96420.50
2023-04-01T22:29:59.492Z,96424.28
2023-04-01T22:32:48.187Z,96432.38
2023-04-01T22:35:43.191Z,96437.25
2023-04-01T22:38:28.234Z,96435.03
2023-04-01T22:41:09.731Z,96441.69
2023-04-01T22:43:44.899Z,96432.66
2023-04-01T22:46:50.344Z,96430.22
2023-04-01T22:49:32.950Z,96426.56
2023-04-01T22:52:20.084Z,96432.25
2023-04-01T22:54:59.028Z,96433.75
2023-04-01T22:57:30.792Z,96444.13
2023-04-01T23:00:14.623Z,96447.06
2023-04-01T23:03:15.555Z,96446.31
2023-04-01T23:05:53.252Z,96445.53
2023-04-01T23:08:52.165Z,96446.78
2023-04-01T23:11:43.775Z,96439.13
2023-04-01T23:14:21.533Z,96441.06
2023-04-01T23:17:21.673Z,96443.66
2023-04-01T23:20:12.320Z,96442.16
2023-04-01T23:23:14.840Z,96444.78
2023-04-01T23:26:18.714Z,96444.78
2023-04-01T23:28:58.696Z,96442.69
2023-04-01T23:31:43.101Z,96446.06
2023-04-01T23:34:15.004Z,96448.22
2023-04-01T23:37:15.873Z,96452.53
2023-04-01T23:39:52.025Z,96455.38
2023-04-01T23:42:32.271Z,96453.38
2023-04-01T23:45:14.441Z,96463.03
2023-04-01T23:47:49.276Z,96465.22
2023-04-01T23:50:25.307Z,96462.16
2023-04-01T23:53:04.502Z,96466.63
2023-04-01T23:55:42.292Z,96469.84
2023-04-01T23:58:26.355Z,96473.72
